Time;durP1;ratioP1;P1;durP2;ratioP2;P2;SDS_P1;SDS_P2;PMS_P1;PMS_P2;Temp;Humidity;BMP_temperature;BMP_pressure;BME280_temperature;BME280_humidity;BME280_pressure;Samples;Min_cycle;Max_cycle;Signal;HPM_P1;HPM_P2
2023/05/27 00:01:08;;;;;;;;;;;7.70;88.40;;;;;;5016206;28;19974;-73
2023/05/27 00:03:35;;;;;;;;;;;7.60;88.80;;;;;;5038635;28;20377;-73
2023/05/27 00:06:02;;;;;;;;;;;7.60;88.90;;;;;;5040876;28;20479;-73
2023/05/27 00:08:29;;;;;;;;;;;7.60;89.00;;;;;;5038775;28;20001;-73
2023/05/27 00:10:56;;;;;;;;;;;7.60;88.60;;;;;;5042207;28;19975;-74
2023/05/27 00:13:23;;;;;;;;;;;7.50;88.60;;;;;;5029520;28;20010;-73
2023/05/27 00:15:50;;;;;;;;;;;7.50;88.80;;;;;;5038717;28;20388;-73
2023/05/27 00:18:17;;;;;;;;;;;7.50;88.70;;;;;;5030973;28;19938;-73
2023/05/27 00:20:44;;;;;;;;;;;7.40;89.00;;;;;;5030904;28;20199;-74
2023/05/27 00:23:11;;;;;;;;;;;7.40;89.10;;;;;;5034763;28;19928;-73
2023/05/27 00:25:38;;;;;;;;;;;7.40;89.40;;;;;;5036380;28;19939;-74
2023/05/27 00:28:04;;;;;;;;;;;7.40;89.50;;;;;;5044506;28;19935;-73
2023/05/27 00:30:31;;;;;;;;;;;7.40;90.10;;;;;;5055973;28;20035;-73
2023/05/27 00:32:58;;;;;;;;;;;7.40;90.40;;;;;;5051927;28;19995;-73
2023/05/27 00:35:25;;;;;;;;;;;7.30;89.20;;;;;;5040415;28;19932;-73
2023/05/27 00:37:51;;;;;;;;;;;7.30;89.80;;;;;;5035693;28;19975;-73
2023/05/27 00:40:21;;;;;;;;;;;7.30;89.00;;;;;;5048018;28;20391;-73
2023/05/27 00:42:47;;;;;;;;;;;7.20;89.20;;;;;;5031928;28;19978;-73
2023/05/27 00:45:14;;;;;;;;;;;7.20;90.00;;;;;;5045578;28;20019;-73
2023/05/27 00:47:41;;;;;;;;;;;7.20;89.80;;;;;;5031690;28;20344;-74
2023/05/27 00:50:08;;;;;;;;;;;7.10;90.40;;;;;;5028457;28;19936;-73
2023/05/27 00:52:35;;;;;;;;;;;7.10;90.10;;;;;;5039876;28;19934;-74
2023/05/27 00:55:02;;;;;;;;;;;7.10;90.00;;;;;;5047201;28;20636;-74
2023/05/27 00:57:29;;;;;;;;;;;7.00;90.60;;;;;;5045423;28;19967;-74
2023/05/27 00:59:56;;;;;;;;;;;7.00;90.80;;;;;;5025484;28;19984;-74
2023/05/27 01:02:22;;;;;;;;;;;7.10;91.00;;;;;;5029672;28;19959;-74
2023/05/27 01:04:50;;;;;;;;;;;7.10;91.20;;;;;;5035437;28;19928;-74
2023/05/27 01:07:30;;;;;;;;;;;7.10;90.60;;;;;;5061155;28;19934;-74
2023/05/27 01:09:56;;;;;;;;;;;7.10;90.70;;;;;;5040963;28;19936;-74
2023/05/27 01:12:32;;;;;;;;;;;7.00;89.90;;;;;;5053152;28;19935;-74
2023/05/27 01:15:00;;;;;;;;;;;7.00;90.80;;;;;;5053533;28;20021;-74
2023/05/27 01:17:27;;;;;;;;;;;7.00;91.30;;;;;;5033637;28;20014;-74
2023/05/27 01:19:55;;;;;;;;;;;7.00;91.20;;;;;;5045406;28;19937;-74
2023/05/27 01:22:29;;;;;;;;;;;7.00;92.60;;;;;;5023925;28;19928;-73
2023/05/27 01:24:57;;;;;;;;;;;7.00;92.50;;;;;;5032344;28;20298;-74
2023/05/27 01:27:26;;;;;;;;;;;7.00;92.00;;;;;;5058559;28;19929;-74
2023/05/27 01:29:53;;;;;;;;;;;6.90;90.50;;;;;;5025497;28;19933;-74
2023/05/27 01:32:32;;;;;;;;;;;6.90;90.70;;;;;;5031233;28;20546;-74
2023/05/27 01:35:22;;;;;;;;;;;6.90;91.70;;;;;;5043731;28;20307;-74
2023/05/27 01:37:50;;;;;;;;;;;6.90;91.70;;;;;;5030641;28;20381;-74
2023/05/27 01:40:17;;;;;;;;;;;6.80;91.30;;;;;;5027669;28;20407;-74
2023/05/27 01:42:44;;;;;;;;;;;6.80;92.10;;;;;;5043496;28;19935;-74
2023/05/27 01:45:12;;;;;;;;;;;6.80;91.90;;;;;;5021697;28;20098;-74
2023/05/27 01:47:38;;;;;;;;;;;6.80;90.80;;;;;;5042269;28;19933;-73
2023/05/27 01:50:06;;;;;;;;;;;6.70;91.20;;;;;;5031405;28;19943;-74
2023/05/27 01:52:33;;;;;;;;;;;6.70;91.80;;;;;;5028951;28;19929;-74
2023/05/27 01:55:00;;;;;;;;;;;6.70;92.00;;;;;;5018709;28;20023;-74
2023/05/27 01:57:27;;;;;;;;;;;6.70;91.80;;;;;;5029945;28;20055;-74
2023/05/27 01:59:53;;;;;;;;;;;6.60;89.40;;;;;;5028340;28;19932;-74
2023/05/27 02:02:20;;;;;;;;;;;6.50;89.40;;;;;;5039384;28;20950;-74
2023/05/27 02:04:47;;;;;;;;;;;6.50;89.80;;;;;;5018908;28;20324;-74
2023/05/27 02:07:14;;;;;;;;;;;6.50;89.50;;;;;;5051161;28;19982;-74
2023/05/27 02:09:41;;;;;;;;;;;6.30;88.80;;;;;;5043149;28;20023;-74
2023/05/27 02:12:07;;;;;;;;;;;6.20;89.20;;;;;;5042516;28;20019;-74
2023/05/27 02:14:38;;;;;;;;;;;6.30;89.90;;;;;;5048331;28;19928;-74
2023/05/27 02:17:05;;;;;;;;;;;6.20;89.70;;;;;;5036913;28;19936;-74
2023/05/27 02:19:32;;;;;;;;;;;6.20;89.80;;;;;;5027515;28;20425;-74
2023/05/27 02:21:58;;;;;;;;;;;6.30;90.80;;;;;;5016951;28;20059;-74
2023/05/27 02:24:25;;;;;;;;;;;6.30;90.90;;;;;;5042372;28;20019;-74
2023/05/27 02:26:52;;;;;;;;;;;6.20;90.70;;;;;;5024328;28;20433;-74
2023/05/27 02:29:19;;;;;;;;;;;6.20;90.90;;;;;;5027850;28;20241;-74
2023/05/27 02:31:45;;;;;;;;;;;6.20;90.90;;;;;;5037790;28;19955;-74
2023/05/27 02:34:12;;;;;;;;;;;6.20;91.50;;;;;;5039488;28;20385;-74
2023/05/27 02:36:39;;;;;;;;;;;6.20;91.10;;;;;;5018685;28;20019;-74
2023/05/27 02:39:06;;;;;;;;;;;6.20;91.20;;;;;;5029449;28;19975;-74
2023/05/27 02:41:32;;;;;;;;;;;6.10;91.10;;;;;;5029875;28;19976;-74
2023/05/27 02:43:59;;;;;;;;;;;6.10;91.30;;;;;;5041589;28;19999;-74
2023/05/27 02:46:26;;;;;;;;;;;6.00;91.50;;;;;;5039383;28;20006;-74
2023/05/27 02:48:53;;;;;;;;;;;6.00;91.70;;;;;;5043638;28;19956;-74
2023/05/27 02:51:24;;;;;;;;;;;6.00;91.60;;;;;;5047014;28;20318;-74
2023/05/27 02:53:50;;;;;;;;;;;6.00;92.00;;;;;;5028221;28;19933;-74
2023/05/27 02:56:17;;;;;;;;;;;6.00;92.50;;;;;;5044013;28;20340;-74
2023/05/27 02:58:44;;;;;;;;;;;6.00;92.50;;;;;;5041398;28;20273;-74
2023/05/27 03:01:11;;;;;;;;;;;5.90;91.80;;;;;;5042847;28;19929;-74
2023/05/27 03:03:37;;;;;;;;;;;5.90;92.60;;;;;;5013162;28;20020;-74
2023/05/27 03:06:05;;;;;;;;;;;5.90;92.40;;;;;;5050281;28;19967;-74
2023/05/27 03:08:32;;;;;;;;;;;6.00;92.00;;;;;;5049331;28;20229;-74
2023/05/27 03:10:58;;;;;;;;;;;6.00;92.50;;;;;;5043182;28;20093;-74
2023/05/27 03:13:25;;;;;;;;;;;5.90;92.50;;;;;;5041909;28;19955;-74
2023/05/27 03:15:54;;;;;;;;;;;5.90;92.70;;;;;;5049791;28;19928;-74
2023/05/27 03:18:21;;;;;;;;;;;5.90;93.00;;;;;;5026689;28;19935;-74
2023/05/27 03:20:48;;;;;;;;;;;5.90;93.10;;;;;;5033229;28;19972;-74
2023/05/27 03:23:15;;;;;;;;;;;5.90;92.40;;;;;;5037829;28;19929;-74
2023/05/27 03:25:41;;;;;;;;;;;5.90;92.10;;;;;;5031355;28;19940;-74
2023/05/27 03:28:08;;;;;;;;;;;5.90;91.80;;;;;;5046740;28;20046;-74
2023/05/27 03:30:36;;;;;;;;;;;5.80;91.80;;;;;;5052672;28;19974;-74
2023/05/27 03:33:03;;;;;;;;;;;5.80;91.80;;;;;;5033295;28;20018;-74
2023/05/27 03:35:29;;;;;;;;;;;5.80;92.50;;;;;;5040873;28;19940;-74
2023/05/27 03:37:56;;;;;;;;;;;5.80;92.10;;;;;;5043475;28;20348;-74
2023/05/27 03:40:23;;;;;;;;;;;5.80;92.10;;;;;;5055104;28;19929;-74
2023/05/27 03:42:50;;;;;;;;;;;5.90;92.10;;;;;;5049746;28;19939;-74
2023/05/27 03:45:17;;;;;;;;;;;5.90;91.90;;;;;;5047100;28;20085;-74
2023/05/27 03:47:43;;;;;;;;;;;5.90;92.10;;;;;;5025520;28;19937;-74
2023/05/27 03:50:10;;;;;;;;;;;5.90;92.30;;;;;;5041226;28;19928;-74
2023/05/27 03:52:37;;;;;;;;;;;5.90;92.10;;;;;;5047768;28;20410;-74
2023/05/27 03:55:04;;;;;;;;;;;6.00;92.40;;;;;;5043658;28;19929;-74
2023/05/27 03:57:31;;;;;;;;;;;6.00;92.80;;;;;;5045493;28;19944;-74
2023/05/27 03:59:58;;;;;;;;;;;6.00;93.30;;;;;;5042286;28;19975;-74
2023/05/27 04:02:24;;;;;;;;;;;6.00;93.30;;;;;;5051862;28;20054;-74
2023/05/27 04:04:52;;;;;;;;;;;6.10;94.00;;;;;;5039232;28;20763;-74
2023/05/27 04:07:20;;;;;;;;;;;6.20;93.50;;;;;;5026405;28;19924;-74
2023/05/27 04:09:46;;;;;;;;;;;6.20;93.80;;;;;;5037578;28;19939;-74
2023/05/27 04:12:13;;;;;;;;;;;6.20;94.00;;;;;;5035415;28;20345;-74
2023/05/27 04:14:40;;;;;;;;;;;6.30;94.80;;;;;;5024545;28;20041;-74
2023/05/27 04:17:07;;;;;;;;;;;6.40;94.50;;;;;;5023481;28;20413;-74
2023/05/27 04:19:34;;;;;;;;;;;6.50;93.80;;;;;;5041539;28;19971;-74
2023/05/27 04:22:00;;;;;;;;;;;6.50;93.70;;;;;;5037587;28;19984;-74
2023/05/27 04:24:27;;;;;;;;;;;6.60;94.20;;;;;;5040520;28;19932;-74
2023/05/27 04:26:54;;;;;;;;;;;6.60;94.40;;;;;;5049246;28;20262;-74
2023/05/27 04:29:22;;;;;;;;;;;6.70;94.90;;;;;;5026978;28;19939;-74
2023/05/27 04:31:50;;;;;;;;;;;6.70;94.80;;;;;;5047022;28;19924;-74
2023/05/27 04:34:17;;;;;;;;;;;6.80;94.90;;;;;;5043289;28;19929;-74
2023/05/27 04:36:49;;;;;;;;;;;6.90;94.50;;;;;;5048783;28;20019;-74
2023/05/27 04:39:16;;;;;;;;;;;7.00;94.70;;;;;;5048029;28;19973;-74
2023/05/27 04:41:44;;;;;;;;;;;7.00;94.90;;;;;;5046604;28;19935;-74
2023/05/27 04:44:11;;;;;;;;;;;7.10;95.10;;;;;;5040198;28;20377;-74
2023/05/27 04:46:43;;;;;;;;;;;7.20;95.40;;;;;;5036618;28;20444;-74
2023/05/27 04:49:10;;;;;;;;;;;7.20;95.50;;;;;;5042879;28;19939;-74
2023/05/27 04:51:37;;;;;;;;;;;7.30;95.40;;;;;;5018223;28;20542;-74
2023/05/27 04:54:05;;;;;;;;;;;7.30;95.50;;;;;;5044090;28;19960;-74
2023/05/27 04:56:32;;;;;;;;;;;7.40;95.40;;;;;;5034542;28;20418;-74
2023/05/27 04:58:59;;;;;;;;;;;7.50;95.70;;;;;;5050446;28;19928;-74
2023/05/27 05:01:27;;;;;;;;;;;7.50;95.20;;;;;;5044469;28;20198;-74
2023/05/27 05:04:12;;;;;;;;;;;7.50;95.40;;;;;;5054393;28;19935;-74
2023/05/27 05:06:39;;;;;;;;;;;7.60;95.40;;;;;;5055786;28;19928;-74
2023/05/27 05:09:08;;;;;;;;;;;7.70;95.70;;;;;;5048376;28;19983;-74
2023/05/27 05:11:35;;;;;;;;;;;7.70;95.90;;;;;;5043727;28;20016;-74
2023/05/27 05:14:02;;;;;;;;;;;7.80;96.00;;;;;;5039072;28;19928;-74
2023/05/27 05:16:29;;;;;;;;;;;7.90;95.90;;;;;;5037878;28;19971;-74
2023/05/27 05:18:57;;;;;;;;;;;8.00;96.00;;;;;;5047279;28;20191;-74
2023/05/27 05:21:23;;;;;;;;;;;8.10;95.80;;;;;;5040641;28;20388;-75
2023/05/27 05:23:50;;;;;;;;;;;8.30;95.50;;;;;;5030225;28;20047;-74
2023/05/27 05:26:17;;;;;;;;;;;8.30;95.50;;;;;;5031997;28;19933;-75
2023/05/27 05:28:43;;;;;;;;;;;8.50;95.50;;;;;;5029502;28;20016;-74
2023/05/27 05:31:10;;;;;;;;;;;8.60;95.30;;;;;;5027376;28;20470;-74
2023/05/27 05:33:37;;;;;;;;;;;8.70;95.20;;;;;;5044284;28;20016;-74
2023/05/27 05:36:04;;;;;;;;;;;8.80;95.30;;;;;;5034479;28;19928;-74
2023/05/27 05:38:31;;;;;;;;;;;8.90;95.20;;;;;;5038975;28;20029;-74
2023/05/27 05:40:58;;;;;;;;;;;9.10;94.50;;;;;;5039516;28;20075;-74
2023/05/27 05:43:25;;;;;;;;;;;9.20;94.80;;;;;;5027095;28;20292;-74
2023/05/27 05:45:52;;;;;;;;;;;9.30;94.80;;;;;;5030572;28;19933;-74
2023/05/27 05:48:19;;;;;;;;;;;9.40;94.60;;;;;;5043030;28;19929;-74
2023/05/27 05:50:46;;;;;;;;;;;9.60;94.20;;;;;;5024491;28;19934;-74
2023/05/27 05:53:13;;;;;;;;;;;9.70;94.50;;;;;;5025986;28;20471;-73
2023/05/27 05:55:40;;;;;;;;;;;9.80;94.10;;;;;;5051642;28;19939;-72
2023/05/27 05:58:07;;;;;;;;;;;9.90;94.40;;;;;;5044931;28;19928;-73
2023/05/27 06:00:35;;;;;;;;;;;10.00;94.30;;;;;;5049315;28;19938;-73
2023/05/27 06:03:02;;;;;;;;;;;10.20;94.20;;;;;;5036299;28;19928;-73
2023/05/27 06:05:29;;;;;;;;;;;10.40;94.10;;;;;;5048330;28;20378;-73
2023/05/27 06:07:55;;;;;;;;;;;10.60;93.90;;;;;;5057405;28;19928;-73
2023/05/27 06:10:22;;;;;;;;;;;10.90;92.60;;;;;;5030310;28;20280;-73
2023/05/27 06:12:49;;;;;;;;;;;11.10;91.00;;;;;;5041297;28;20547;-73
2023/05/27 06:15:16;;;;;;;;;;;11.40;91.00;;;;;;5045842;28;20015;-73
2023/05/27 06:17:43;;;;;;;;;;;11.70;88.40;;;;;;5040344;28;19929;-73
2023/05/27 06:20:10;;;;;;;;;;;11.90;87.60;;;;;;5021927;28;19937;-73
2023/05/27 06:22:37;;;;;;;;;;;12.30;87.70;;;;;;5043384;28;20312;-73
2023/05/27 06:25:04;;;;;;;;;;;12.60;84.80;;;;;;5047029;28;20043;-73
2023/05/27 06:27:31;;;;;;;;;;;12.90;88.40;;;;;;5036846;28;19933;-73
2023/05/27 06:29:57;;;;;;;;;;;13.30;85.30;;;;;;5045734;28;20157;-73
2023/05/27 06:32:24;;;;;;;;;;;13.60;83.90;;;;;;5049546;28;19982;-75
2023/05/27 06:34:51;;;;;;;;;;;13.90;82.50;;;;;;5033318;28;19932;-74
2023/05/27 06:37:17;;;;;;;;;;;14.10;83.60;;;;;;5032256;28;20004;-74
2023/05/27 06:39:44;;;;;;;;;;;14.30;80.50;;;;;;5042738;28;19925;-74
2023/05/27 06:42:11;;;;;;;;;;;14.60;79.40;;;;;;5044993;28;20300;-83
2023/05/27 06:44:38;;;;;;;;;;;14.90;77.00;;;;;;5046474;28;20224;-83
2023/05/27 06:47:04;;;;;;;;;;;15.00;76.60;;;;;;5043459;28;19979;-83
2023/05/27 06:49:31;;;;;;;;;;;15.30;76.60;;;;;;5043615;28;20426;-83
2023/05/27 06:51:58;;;;;;;;;;;15.50;73.10;;;;;;5053265;28;20300;-83
2023/05/27 06:54:25;;;;;;;;;;;15.70;73.10;;;;;;5046680;28;20015;-84
2023/05/27 06:56:52;;;;;;;;;;;16.00;69.30;;;;;;5041205;28;20299;-82
2023/05/27 06:59:18;;;;;;;;;;;16.20;68.40;;;;;;5025045;28;20416;-82
2023/05/27 07:01:45;;;;;;;;;;;16.60;66.90;;;;;;5041740;28;19972;-87
2023/05/27 07:04:12;;;;;;;;;;;17.00;64.40;;;;;;5042749;28;19929;-86
2023/05/27 07:06:39;;;;;;;;;;;17.00;63.30;;;;;;5040237;28;19953;-80
2023/05/27 07:09:06;;;;;;;;;;;17.10;60.80;;;;;;5035995;28;20020;-84
2023/05/27 07:11:32;;;;;;;;;;;17.00;61.80;;;;;;5053944;28;19929;-84
2023/05/27 07:13:59;;;;;;;;;;;17.20;59.80;;;;;;5018224;28;20341;-84
2023/05/27 07:16:26;;;;;;;;;;;17.80;57.80;;;;;;5020825;28;20015;-82
2023/05/27 07:18:53;;;;;;;;;;;18.40;55.70;;;;;;5033291;28;19991;-83
2023/05/27 07:21:20;;;;;;;;;;;18.10;55.40;;;;;;5025164;28;20388;-83
2023/05/27 07:23:47;;;;;;;;;;;17.90;54.70;;;;;;5043541;28;19933;-82
2023/05/27 07:26:14;;;;;;;;;;;18.10;55.50;;;;;;5026729;28;19935;-81
2023/05/27 07:28:40;;;;;;;;;;;18.30;54.20;;;;;;5039563;28;19933;-80
2023/05/27 07:31:07;;;;;;;;;;;18.40;55.30;;;;;;5023714;28;19929;-81
2023/05/27 07:33:34;;;;;;;;;;;18.80;52.80;;;;;;5030907;28;19933;-82
2023/05/27 07:36:01;;;;;;;;;;;18.90;52.60;;;;;;5049536;28;20479;-82
2023/05/27 07:38:28;;;;;;;;;;;18.60;51.50;;;;;;5049653;28;20318;-83
2023/05/27 07:40:54;;;;;;;;;;;18.60;52.30;;;;;;5041442;28;19987;-83
2023/05/27 07:43:21;;;;;;;;;;;18.70;51.10;;;;;;5047344;28;20418;-83
2023/05/27 07:45:48;;;;;;;;;;;18.40;51.90;;;;;;5038041;28;20002;-84
2023/05/27 07:48:15;;;;;;;;;;;18.80;54.70;;;;;;5048278;28;20501;-85
2023/05/27 07:50:41;;;;;;;;;;;19.30;51.70;;;;;;5023997;28;20399;-83
2023/05/27 07:53:08;;;;;;;;;;;19.80;51.50;;;;;;5032302;28;19976;-81
2023/05/27 07:55:35;;;;;;;;;;;20.30;49.50;;;;;;5043876;28;20328;-80
2023/05/27 07:58:02;;;;;;;;;;;20.90;48.70;;;;;;5017407;28;20103;-79
2023/05/27 08:00:28;;;;;;;;;;;20.70;48.90;;;;;;5038506;28;20452;-79
2023/05/27 08:02:55;;;;;;;;;;;20.70;49.10;;;;;;5021936;28;19955;-83
2023/05/27 08:05:22;;;;;;;;;;;21.20;47.60;;;;;;5041894;28;20397;-83
2023/05/27 08:07:49;;;;;;;;;;;20.90;47.90;;;;;;5018470;28;20360;-82
2023/05/27 08:10:16;;;;;;;;;;;21.30;45.90;;;;;;5040254;28;19999;-82
2023/05/27 08:12:43;;;;;;;;;;;21.50;48.00;;;;;;5046593;28;19959;-81
2023/05/27 08:15:10;;;;;;;;;;;21.30;46.00;;;;;;5038127;28;20019;-81
2023/05/27 08:17:36;;;;;;;;;;;21.40;48.20;;;;;;5046605;28;19928;-81
2023/05/27 08:20:04;;;;;;;;;;;21.50;47.50;;;;;;5023575;28;20031;-82
2023/05/27 08:22:30;;;;;;;;;;;21.50;45.30;;;;;;5020315;28;19929;-83
2023/05/27 08:24:57;;;;;;;;;;;21.50;46.90;;;;;;5023819;28;20377;-82
2023/05/27 08:27:42;;;;;;;;;;;21.20;45.90;;;;;;5027606;28;19929;-80
2023/05/27 08:30:09;;;;;;;;;;;21.20;46.30;;;;;;5050438;28;20250;-80
2023/05/27 08:32:36;;;;;;;;;;;21.70;47.30;;;;;;5037426;28;19928;-79
2023/05/27 08:35:03;;;;;;;;;;;22.20;45.40;;;;;;5040887;28;19929;-79
2023/05/27 08:37:29;;;;;;;;;;;22.20;47.40;;;;;;5056849;28;19971;-80
2023/05/27 08:39:57;;;;;;;;;;;22.60;45.70;;;;;;5039309;28;20032;-80
2023/05/27 08:42:25;;;;;;;;;;;22.90;44.70;;;;;;5022850;28;20615;-79
2023/05/27 08:44:52;;;;;;;;;;;22.60;43.10;;;;;;5021309;28;19990;-80
2023/05/27 08:47:19;;;;;;;;;;;22.10;46.10;;;;;;5024753;28;19929;-80
2023/05/27 08:49:46;;;;;;;;;;;22.10;46.00;;;;;;5021874;28;19929;-81
2023/05/27 08:52:18;;;;;;;;;;;22.50;44.70;;;;;;5038559;28;20472;-80
2023/05/27 08:54:45;;;;;;;;;;;22.60;45.10;;;;;;5039418;28;19935;-83
2023/05/27 08:57:12;;;;;;;;;;;22.70;45.60;;;;;;5043256;28;20393;-81
2023/05/27 08:59:39;;;;;;;;;;;22.70;42.10;;;;;;5020399;28;19972;-81
2023/05/27 09:02:12;;;;;;;;;;;21.90;43.80;;;;;;5031456;28;19933;-81
2023/05/27 09:04:39;;;;;;;;;;;21.70;44.30;;;;;;5040823;28;19928;-80
2023/05/27 09:07:06;;;;;;;;;;;21.50;45.50;;;;;;5043592;28;20400;-82
2023/05/27 09:09:34;;;;;;;;;;;21.40;45.80;;;;;;5044255;28;19929;-79
2023/05/27 09:12:04;;;;;;;;;;;21.00;45.90;;;;;;5045555;28;20385;-84
2023/05/27 09:14:31;;;;;;;;;;;20.90;46.90;;;;;;5047344;28;20471;-81
2023/05/27 09:17:04;;;;;;;;;;;20.80;46.80;;;;;;5032556;28;19964;-81
2023/05/27 09:19:30;;;;;;;;;;;20.40;48.90;;;;;;5044990;28;19932;-83
2023/05/27 09:21:57;;;;;;;;;;;20.50;48.90;;;;;;5043754;28;19936;-81
2023/05/27 09:24:24;;;;;;;;;;;20.70;46.60;;;;;;5042910;28;20010;-81
2023/05/27 09:26:52;;;;;;;;;;;20.40;46.70;;;;;;5027575;28;19928;-81
2023/05/27 09:29:19;;;;;;;;;;;20.10;48.20;;;;;;5046407;28;19928;-82
2023/05/27 09:31:46;;;;;;;;;;;20.00;49.40;;;;;;5047409;28;19964;-82
2023/05/27 09:34:16;;;;;;;;;;;20.30;47.20;;;;;;5048174;28;19936;-79
2023/05/27 09:36:44;;;;;;;;;;;20.60;49.90;;;;;;5035646;28;20019;-82
2023/05/27 09:39:12;;;;;;;;;;;21.10;46.30;;;;;;5035915;28;19929;-83
2023/05/27 09:41:38;;;;;;;;;;;20.60;48.20;;;;;;5045690;28;20329;-83
2023/05/27 09:44:05;;;;;;;;;;;21.10;46.60;;;;;;5026776;28;19929;-82
2023/05/27 09:46:33;;;;;;;;;;;21.20;46.80;;;;;;5042886;28;19933;-83
2023/05/27 09:49:00;;;;;;;;;;;21.30;47.70;;;;;;5027641;28;19955;-82
2023/05/27 09:51:27;;;;;;;;;;;22.00;46.50;;;;;;5046680;28;19932;-82
2023/05/27 09:53:57;;;;;;;;;;;22.70;43.90;;;;;;5044733;28;19928;-83
2023/05/27 09:56:28;;;;;;;;;;;22.90;42.60;;;;;;5039105;28;19988;-82
2023/05/27 09:58:55;;;;;;;;;;;22.80;41.90;;;;;;5042153;28;20336;-82
2023/05/27 10:01:28;;;;;;;;;;;22.60;44.60;;;;;;5032071;28;19929;-83
2023/05/27 10:03:58;;;;;;;;;;;22.50;44.80;;;;;;5041839;28;19929;-83
2023/05/27 10:06:26;;;;;;;;;;;22.90;44.10;;;;;;5030811;28;19929;-83
2023/05/27 10:08:53;;;;;;;;;;;23.30;45.40;;;;;;5038843;28;20277;-82
2023/05/27 10:11:21;;;;;;;;;;;23.40;42.30;;;;;;5041954;28;20059;-82
2023/05/27 10:13:49;;;;;;;;;;;23.30;43.70;;;;;;5030232;28;19935;-82
2023/05/27 10:16:22;;;;;;;;;;;22.90;43.50;;;;;;5044108;28;20019;-82
2023/05/27 10:18:56;;;;;;;;;;;22.90;41.80;;;;;;5027458;28;19944;-82
2023/05/27 10:21:24;;;;;;;;;;;22.90;42.20;;;;;;5042810;28;19929;-82
2023/05/27 10:23:53;;;;;;;;;;;22.10;42.30;;;;;;5041774;28;19928;-82
2023/05/27 10:26:31;;;;;;;;;;;22.00;43.70;;;;;;5032241;28;20043;-82
2023/05/27 10:29:04;;;;;;;;;;;21.80;43.60;;;;;;5042763;28;19929;-82
2023/05/27 10:31:31;;;;;;;;;;;21.50;43.90;;;;;;5033923;28;20459;-81
2023/05/27 10:33:58;;;;;;;;;;;21.20;44.50;;;;;;5028479;28;19932;-81
2023/05/27 10:36:28;;;;;;;;;;;21.50;47.80;;;;;;5043872;28;19968;-82
2023/05/27 10:38:56;;;;;;;;;;;22.20;45.00;;;;;;5044018;28;20384;-81
2023/05/27 10:41:23;;;;;;;;;;;22.20;46.40;;;;;;5031660;28;20242;-82
2023/05/27 10:43:59;;;;;;;;;;;23.30;43.70;;;;;;5041926;28;19929;-82
2023/05/27 10:46:26;;;;;;;;;;;23.30;42.20;;;;;;5043292;28;20343;-81
2023/05/27 10:48:53;;;;;;;;;;;23.80;44.40;;;;;;5043543;28;19929;-82
2023/05/27 10:51:30;;;;;;;;;;;24.10;42.00;;;;;;5039293;28;20345;-82
2023/05/27 10:53:58;;;;;;;;;;;24.80;41.80;;;;;;5043236;28;20352;-82
2023/05/27 10:56:29;;;;;;;;;;;25.00;41.10;;;;;;5044969;28;20012;-82
2023/05/27 10:58:56;;;;;;;;;;;24.80;41.50;;;;;;5027056;28;20602;-82
2023/05/27 11:01:23;;;;;;;;;;;25.10;41.00;;;;;;5042899;28;21432;-82
2023/05/27 11:03:50;;;;;;;;;;;24.40;41.50;;;;;;5035507;28;19929;-82
2023/05/27 11:06:17;;;;;;;;;;;24.40;41.80;;;;;;5043789;28;20321;-82
2023/05/27 11:08:44;;;;;;;;;;;24.50;41.60;;;;;;5024570;28;19964;-82
2023/05/27 11:11:11;;;;;;;;;;;24.70;42.60;;;;;;5046084;28;20342;-83
2023/05/27 11:13:39;;;;;;;;;;;25.00;40.30;;;;;;5044826;28;20579;-81
2023/05/27 11:16:06;;;;;;;;;;;24.90;40.60;;;;;;5029012;28;20330;-81
2023/05/27 11:18:53;;;;;;;;;;;24.90;39.90;;;;;;5044005;28;19971;-83
2023/05/27 11:21:20;;;;;;;;;;;25.30;38.60;;;;;;5029163;28;19935;-82
2023/05/27 11:23:48;;;;;;;;;;;24.80;39.00;;;;;;5035555;28;19929;-83
2023/05/27 11:26:21;;;;;;;;;;;24.20;40.10;;;;;;5042438;28;19929;-80
2023/05/27 11:28:53;;;;;;;;;;;23.60;42.00;;;;;;5042487;28;20365;-80
2023/05/27 11:31:21;;;;;;;;;;;23.60;41.10;;;;;;5043150;28;20399;-78
2023/05/27 11:33:51;;;;;;;;;;;23.10;42.60;;;;;;5043591;28;19928;-77
2023/05/27 11:36:18;;;;;;;;;;;23.00;42.00;;;;;;5041508;28;20358;-75
2023/05/27 11:38:46;;;;;;;;;;;23.10;41.90;;;;;;5021815;28;19972;-76
2023/05/27 11:41:17;;;;;;;;;;;23.00;41.40;;;;;;5024935;28;19929;-77
2023/05/27 11:43:50;;;;;;;;;;;22.60;41.50;;;;;;5042547;28;20399;-76
2023/05/27 11:46:18;;;;;;;;;;;22.50;41.50;;;;;;5042667;28;20102;-77
2023/05/27 11:48:44;;;;;;;;;;;22.60;43.80;;;;;;5023371;28;19966;-78
2023/05/27 11:51:11;;;;;;;;;;;23.00;43.60;;;;;;5044029;28;19933;-78
2023/05/27 11:53:39;;;;;;;;;;;23.20;43.60;;;;;;5043072;28;20378;-80
2023/05/27 11:56:06;;;;;;;;;;;23.10;43.60;;;;;;5030996;28;20456;-82
2023/05/27 11:58:33;;;;;;;;;;;23.40;43.10;;;;;;5024746;28;19972;-81
2023/05/27 12:01:00;;;;;;;;;;;23.30;42.60;;;;;;5040778;28;19924;-79
2023/05/27 12:03:27;;;;;;;;;;;23.40;43.40;;;;;;5044203;28;19987;-80
2023/05/27 12:05:54;;;;;;;;;;;23.70;40.30;;;;;;5038996;28;19929;-80
2023/05/27 12:08:21;;;;;;;;;;;24.00;42.10;;;;;;5045873;28;19929;-81
2023/05/27 12:10:50;;;;;;;;;;;24.30;41.10;;;;;;5029402;28;19929;-80
2023/05/27 12:13:17;;;;;;;;;;;24.10;41.70;;;;;;5040175;28;20432;-79
2023/05/27 12:15:43;;;;;;;;;;;24.40;40.10;;;;;;5026069;28;19929;-80
2023/05/27 12:18:10;;;;;;;;;;;24.30;41.40;;;;;;5032254;28;20374;-80
2023/05/27 12:20:37;;;;;;;;;;;24.20;40.90;;;;;;5042170;28;19925;-79
2023/05/27 12:23:04;;;;;;;;;;;24.60;41.00;;;;;;5053556;28;19932;-79
2023/05/27 12:25:31;;;;;;;;;;;24.60;41.30;;;;;;5037461;28;20337;-80
2023/05/27 12:27:58;;;;;;;;;;;24.40;40.40;;;;;;5046875;28;20052;-79
2023/05/27 12:30:24;;;;;;;;;;;24.40;39.90;;;;;;5031038;28;19932;-80
2023/05/27 12:32:51;;;;;;;;;;;24.30;41.00;;;;;;5043442;28;20365;-80
2023/05/27 12:35:18;;;;;;;;;;;24.60;40.00;;;;;;5037049;28;19929;-80
2023/05/27 12:37:45;;;;;;;;;;;24.30;39.70;;;;;;5023522;28;20420;-80
2023/05/27 12:40:14;;;;;;;;;;;24.40;39.00;;;;;;5036833;28;20364;-80
2023/05/27 12:42:41;;;;;;;;;;;24.60;39.80;;;;;;5039597;28;19964;-80
2023/05/27 12:45:09;;;;;;;;;;;24.90;38.90;;;;;;5043659;28;20034;-81
2023/05/27 12:47:36;;;;;;;;;;;24.50;37.90;;;;;;5046108;28;19935;-81
2023/05/27 12:50:04;;;;;;;;;;;24.20;39.30;;;;;;5032683;28;20398;-81
2023/05/27 12:52:30;;;;;;;;;;;24.30;38.40;;;;;;5026650;28;20549;-81
2023/05/27 12:54:57;;;;;;;;;;;24.80;39.20;;;;;;5047547;28;19936;-81
2023/05/27 12:57:25;;;;;;;;;;;24.70;39.20;;;;;;5026638;28;20450;-80
2023/05/27 12:59:52;;;;;;;;;;;24.40;38.60;;;;;;5043275;28;20241;-81
2023/05/27 13:02:19;;;;;;;;;;;24.40;38.90;;;;;;5047864;28;20043;-81
2023/05/27 13:04:47;;;;;;;;;;;24.50;39.40;;;;;;5039669;28;19933;-81
2023/05/27 13:07:13;;;;;;;;;;;24.50;38.90;;;;;;5025960;28;19929;-80
2023/05/27 13:09:40;;;;;;;;;;;24.30;38.90;;;;;;5032001;28;20289;-80
2023/05/27 13:12:07;;;;;;;;;;;24.40;39.50;;;;;;5036512;28;19929;-81
2023/05/27 13:14:34;;;;;;;;;;;24.50;39.70;;;;;;5054277;28;19933;-80
2023/05/27 13:17:01;;;;;;;;;;;24.30;40.60;;;;;;5050495;28;20441;-80
2023/05/27 13:19:28;;;;;;;;;;;24.70;40.80;;;;;;5047237;28;19929;-80
2023/05/27 13:21:55;;;;;;;;;;;24.90;39.30;;;;;;5053532;28;20027;-81
2023/05/27 13:24:22;;;;;;;;;;;24.80;40.40;;;;;;5047531;28;19937;-81
2023/05/27 13:26:49;;;;;;;;;;;24.50;39.70;;;;;;5023290;28;20377;-81
2023/05/27 13:29:16;;;;;;;;;;;24.60;39.20;;;;;;5044646;28;20274;-81
2023/05/27 13:31:45;;;;;;;;;;;24.40;39.50;;;;;;5028954;28;19972;-80
2023/05/27 13:34:12;;;;;;;;;;;24.30;39.30;;;;;;5047100;28;20453;-80
2023/05/27 13:36:39;;;;;;;;;;;24.10;40.20;;;;;;5046834;28;19936;-81
2023/05/27 13:39:06;;;;;;;;;;;24.80;40.80;;;;;;5025850;28;20043;-80
2023/05/27 13:41:32;;;;;;;;;;;24.90;38.80;;;;;;5027894;28;19955;-81
2023/05/27 13:43:59;;;;;;;;;;;24.70;39.00;;;;;;5025516;28;19933;-79
2023/05/27 13:46:26;;;;;;;;;;;25.10;39.20;;;;;;5038618;28;20215;-81
2023/05/27 13:48:53;;;;;;;;;;;25.00;38.80;;;;;;5037336;28;19936;-80
2023/05/27 13:51:20;;;;;;;;;;;25.20;39.60;;;;;;5047715;28;21304;-81
2023/05/27 13:53:48;;;;;;;;;;;24.80;37.90;;;;;;5035658;28;20434;-80
2023/05/27 13:56:15;;;;;;;;;;;25.10;39.60;;;;;;5057138;28;19959;-80
2023/05/27 13:58:41;;;;;;;;;;;25.20;38.60;;;;;;5049130;28;19940;-81
2023/05/27 14:01:08;;;;;;;;;;;25.40;38.80;;;;;;5034612;28;19928;-81
2023/05/27 14:03:35;;;;;;;;;;;25.60;37.60;;;;;;5045070;28;20126;-81
2023/05/27 14:06:02;;;;;;;;;;;25.50;38.00;;;;;;5044542;28;20267;-81
2023/05/27 14:08:29;;;;;;;;;;;25.60;38.30;;;;;;5031215;28;20419;-80
2023/05/27 14:10:56;;;;;;;;;;;25.40;37.90;;;;;;5025895;28;20469;-80
2023/05/27 14:13:23;;;;;;;;;;;25.40;38.20;;;;;;5031954;28;20026;-79
2023/05/27 14:15:50;;;;;;;;;;;24.80;37.90;;;;;;5028171;28;19928;-80
2023/05/27 14:18:17;;;;;;;;;;;24.80;38.60;;;;;;5048553;28;19963;-80
2023/05/27 14:20:44;;;;;;;;;;;24.90;39.20;;;;;;5048812;28;19933;-80
2023/05/27 14:23:13;;;;;;;;;;;25.20;37.30;;;;;;5047375;28;19998;-79
2023/05/27 14:25:40;;;;;;;;;;;25.10;38.30;;;;;;5034893;28;20015;-80